Time;durP1;ratioP1;P1;durP2;ratioP2;P2;SDS_P1;SDS_P2;PMS_P1;PMS_P2;Temp;Humidity;BMP_temperature;BMP_pressure;BME280_temperature;BME280_humidity;BME280_pressure;Samples;Min_cycle;Max_cycle;Signal;HPM_P1;HPM_P2
2022/04/01 00:02:25;;;;;;;11.45;7.25;;;;;;;;;;4944358;28;20047;-69
2022/04/01 00:04:50;;;;;;;12.30;7.68;;;;;;;;;;4945898;28;20043;-69
2022/04/01 00:07:16;;;;;;;10.88;7.78;;;;;;;;;;4944796;28;20390;-75
2022/04/01 00:09:42;;;;;;;10.52;7.32;;;;;;;;;;4945805;29;20075;-71
2022/04/01 00:12:09;;;;;;;11.73;8.18;;;;;;;;;;4944722;28;20039;-68
2022/04/01 00:14:35;;;;;;;8.43;6.82;;;;;;;;;;4945051;28;20042;-69
2022/04/01 00:17:00;;;;;;;11.73;7.88;;;;;;;;;;4945255;29;20035;-70
2022/04/01 00:19:27;;;;;;;10.32;7.13;;;;;;;;;;4945219;29;20512;-71
2022/04/01 00:21:52;;;;;;;13.75;9.18;;;;;;;;;;4945335;29;20042;-71
2022/04/01 00:24:18;;;;;;;11.27;8.13;;;;;;;;;;4944522;28;20051;-70
2022/04/01 00:26:44;;;;;;;12.85;8.88;;;;;;;;;;4945365;28;20031;-75
2022/04/01 00:29:15;;;;;;;13.70;9.32;;;;;;;;;;4945740;29;20039;-69
2022/04/01 00:31:58;;;;;;;15.60;10.15;;;;;;;;;;4944837;29;20043;-70
2022/04/01 00:34:28;;;;;;;16.13;9.73;;;;;;;;;;4944151;28;20039;-74
2022/04/01 00:36:55;;;;;;;11.65;9.02;;;;;;;;;;4944884;28;20042;-70
2022/04/01 00:39:21;;;;;;;13.43;8.32;;;;;;;;;;4945294;29;20054;-68
2022/04/01 00:41:49;;;;;;;16.83;10.10;;;;;;;;;;4927593;29;20504;-68
2022/04/01 00:44:17;;;;;;;10.20;4.97;;;;;;;;;;4927419;29;20504;-76
2022/04/01 00:46:45;;;;;;;4.35;3.63;;;;;;;;;;4927946;29;20039;-70
2022/04/01 00:49:11;;;;;;;4.88;3.78;;;;;;;;;;4945184;28;20038;-73
2022/04/01 00:51:38;;;;;;;5.25;3.70;;;;;;;;;;4927422;29;20034;-68
2022/04/01 00:54:06;;;;;;;4.45;3.83;;;;;;;;;;4944771;29;20043;-71
2022/04/01 00:56:34;;;;;;;5.53;4.05;;;;;;;;;;4926855;29;20027;-71
2022/04/01 00:59:00;;;;;;;4.22;3.65;;;;;;;;;;4926983;29;20047;-71
2022/04/01 01:01:26;;;;;;;4.32;3.80;;;;;;;;;;4944149;29;20039;-69
2022/04/01 01:03:52;;;;;;;5.70;3.75;;;;;;;;;;4943971;29;20070;-69
2022/04/01 01:06:19;;;;;;;4.57;3.50;;;;;;;;;;4942999;29;20134;-69
2022/04/01 01:08:45;;;;;;;6.07;3.67;;;;;;;;;;4925844;29;20049;-70
2022/04/01 01:11:11;;;;;;;4.53;3.42;;;;;;;;;;4942870;28;20039;-70
2022/04/01 01:13:36;;;;;;;4.65;3.05;;;;;;;;;;4943527;29;20043;-75
2022/04/01 01:16:02;;;;;;;3.90;3.50;;;;;;;;;;4925633;29;20090;-78
2022/04/01 01:18:27;;;;;;;4.07;3.30;;;;;;;;;;4921378;29;20089;-70
2022/04/01 01:20:53;;;;;;;4.53;3.65;;;;;;;;;;4925646;29;20396;-70
2022/04/01 01:23:18;;;;;;;5.65;3.83;;;;;;;;;;4943092;28;20041;-76
2022/04/01 01:25:45;;;;;;;3.95;3.58;;;;;;;;;;4943174;29;20073;-70
2022/04/01 01:28:11;;;;;;;3.85;3.45;;;;;;;;;;4925183;28;20047;-74
2022/04/01 01:30:37;;;;;;;4.88;3.88;;;;;;;;;;4925752;29;20039;-75
2022/04/01 01:33:02;;;;;;;4.47;3.63;;;;;;;;;;4926058;29;21015;-70
2022/04/01 01:35:29;;;;;;;4.95;3.65;;;;;;;;;;4926507;29;20039;-74
2022/04/01 01:37:54;;;;;;;4.35;3.55;;;;;;;;;;4943821;29;20089;-70
2022/04/01 01:40:20;;;;;;;6.18;3.20;;;;;;;;;;4925354;28;20046;-73
2022/04/01 01:42:46;;;;;;;4.10;3.42;;;;;;;;;;4943590;28;20042;-70
2022/04/01 01:45:11;;;;;;;4.07;3.67;;;;;;;;;;4926037;29;20404;-76
2022/04/01 01:47:37;;;;;;;9.88;3.63;;;;;;;;;;4943656;29;20093;-69
2022/04/01 01:55:32;;;;;;;3.40;3.10;;;;;;;;;;4925772;29;20041;-69
2022/04/01 01:58:03;;;;;;;4.38;3.70;;;;;;;;;;4925968;29;20035;-71
2022/04/01 02:00:29;;;;;;;4.40;3.50;;;;;;;;;;4925963;29;20491;-70
2022/04/01 02:02:56;;;;;;;7.95;3.08;;;;;;;;;;4925667;29;20039;-70
2022/04/01 02:05:21;;;;;;;3.67;3.17;;;;;;;;;;4943209;28;20945;-69
2022/04/01 02:07:47;;;;;;;3.13;2.83;;;;;;;;;;4943259;29;20059;-68
2022/04/01 02:10:16;;;;;;;6.43;3.25;;;;;;;;;;4925366;28;20519;-69
2022/04/01 02:12:43;;;;;;;4.80;3.20;;;;;;;;;;4925092;29;20043;-72
2022/04/01 02:15:10;;;;;;;4.38;3.35;;;;;;;;;;4925783;28;20038;-70
2022/04/01 02:17:38;;;;;;;3.75;3.28;;;;;;;;;;4943365;29;20046;-69
2022/04/01 02:20:11;;;;;;;3.25;2.95;;;;;;;;;;4925770;28;20150;-68
2022/04/01 02:22:38;;;;;;;3.50;2.88;;;;;;;;;;4926168;29;20444;-69
2022/04/01 02:25:05;;;;;;;5.00;3.17;;;;;;;;;;4925020;28;20039;-68
2022/04/01 02:27:31;;;;;;;1.77;1.67;;;;;;;;;;4925722;29;20046;-75
2022/04/01 02:29:57;;;;;;;2.45;2.20;;;;;;;;;;4925172;28;20032;-69
2022/04/01 02:32:52;;;;;;;2.70;2.10;;;;;;;;;;4890376;29;20048;-68
2022/04/01 02:35:29;;;;;;;2.55;2.13;;;;;;;;;;4942412;28;20035;-70
2022/04/01 02:37:56;;;;;;;3.25;2.20;;;;;;;;;;4925776;29;20031;-69
2022/04/01 02:40:22;;;;;;;2.55;2.30;;;;;;;;;;4925073;29;20090;-69
2022/04/01 02:42:48;;;;;;;2.97;2.30;;;;;;;;;;4925765;29;20520;-70
2022/04/01 02:45:18;;;;;;;2.60;2.40;;;;;;;;;;4924621;29;21323;-73
2022/04/01 02:47:43;;;;;;;3.17;2.55;;;;;;;;;;4924836;29;20087;-71
2022/04/01 02:50:10;;;;;;;3.95;2.70;;;;;;;;;;4925305;28;20047;-70
2022/04/01 02:52:36;;;;;;;3.85;2.75;;;;;;;;;;4942948;29;20054;-70
2022/04/01 02:55:03;;;;;;;3.95;2.58;;;;;;;;;;4925107;29;20407;-72
2022/04/01 02:57:29;;;;;;;3.63;2.90;;;;;;;;;;4925301;29;20034;-71
2022/04/01 02:59:55;;;;;;;7.55;3.00;;;;;;;;;;4925309;29;20035;-72
2022/04/01 03:02:22;;;;;;;4.22;3.15;;;;;;;;;;4925384;29;20283;-73
2022/04/01 03:04:47;;;;;;;4.80;3.58;;;;;;;;;;4942741;29;20039;-69
2022/04/01 03:07:13;;;;;;;6.43;3.20;;;;;;;;;;4924716;29;20440;-77
2022/04/01 03:09:38;;;;;;;4.93;2.13;;;;;;;;;;4925276;29;20042;-68
2022/04/01 03:12:11;;;;;;;2.40;2.20;;;;;;;;;;4925119;29;20564;-70
2022/04/01 03:15:05;;;;;;;4.20;3.10;;;;;;;;;;4924638;29;20046;-70
2022/04/01 03:17:31;;;;;;;5.35;3.28;;;;;;;;;;4940503;28;20039;-71
2022/04/01 03:19:59;;;;;;;3.90;3.20;;;;;;;;;;4924099;29;20178;-70
2022/04/01 03:22:25;;;;;;;6.32;3.65;;;;;;;;;;4925238;29;20024;-74
2022/04/01 03:24:51;;;;;;;5.43;3.45;;;;;;;;;;4925306;29;20086;-70
2022/04/01 03:27:17;;;;;;;5.07;3.30;;;;;;;;;;4925324;29;20094;-70
2022/04/01 03:29:42;;;;;;;5.60;3.10;;;;;;;;;;4924725;29;20035;-72
2022/04/01 03:32:10;;;;;;;5.22;3.60;;;;;;;;;;4922814;28;20416;-72
2022/04/01 03:34:41;;;;;;;3.60;2.90;;;;;;;;;;4924588;29;20027;-70
2022/04/01 03:37:07;;;;;;;3.33;2.95;;;;;;;;;;4924452;29;20530;-73
2022/04/01 03:39:35;;;;;;;4.25;2.85;;;;;;;;;;4924566;29;20114;-70
2022/04/01 03:42:06;;;;;;;5.95;2.78;;;;;;;;;;4925679;28;20027;-68
2022/04/01 03:44:36;;;;;;;4.57;3.40;;;;;;;;;;4928204;29;20035;-71
2022/04/01 03:47:43;;;;;;;4.70;2.95;;;;;;;;;;4944888;29;20151;-74
2022/04/01 03:50:12;;;;;;;3.83;2.60;;;;;;;;;;4944594;29;21080;-75
2022/04/01 03:52:38;;;;;;;3.17;2.45;;;;;;;;;;4927896;29;20510;-72
2022/04/01 03:55:08;;;;;;;2.50;2.30;;;;;;;;;;4945567;28;20043;-73
2022/04/01 03:58:08;;;;;;;3.92;2.70;;;;;;;;;;4910048;29;20114;-68
2022/04/01 04:00:53;;;;;;;2.13;1.77;;;;;;;;;;4947315;28;20054;-69
2022/04/01 04:03:18;;;;;;;1.88;1.67;;;;;;;;;;4947127;29;20035;-69
2022/04/01 04:05:47;;;;;;;3.03;2.03;;;;;;;;;;4930284;29;20073;-70
2022/04/01 04:08:17;;;;;;;2.22;1.80;;;;;;;;;;4947418;29;20042;-70
2022/04/01 04:10:46;;;;;;;3.45;2.65;;;;;;;;;;4930323;29;20043;-70
2022/04/01 04:13:37;;;;;;;1.30;1.20;;;;;;;;;;4945229;29;20066;-70
2022/04/01 04:16:14;;;;;;;2.63;2.28;;;;;;;;;;4947344;28;20058;-71
2022/04/01 04:18:43;;;;;;;2.67;2.45;;;;;;;;;;4946167;29;20038;-70
2022/04/01 04:21:27;;;;;;;3.03;2.40;;;;;;;;;;4928670;28;20135;-68
2022/04/01 04:24:02;;;;;;;1.35;1.25;;;;;;;;;;4946096;29;20031;-68
2022/04/01 04:26:31;;;;;;;1.90;1.58;;;;;;;;;;4928608;29;20038;-69
2022/04/01 04:29:07;;;;;;;2.10;1.90;;;;;;;;;;4945040;28;20122;-69
2022/04/01 04:31:57;;;;;;;2.38;1.77;;;;;;;;;;4928176;29;20511;-70
2022/04/01 04:34:27;;;;;;;1.50;1.40;;;;;;;;;;4928131;29;20046;-69
2022/04/01 04:36:56;;;;;;;1.60;1.50;;;;;;;;;;4927444;29;20081;-68
2022/04/01 04:39:30;;;;;;;3.30;1.58;;;;;;;;;;4928288;29;20039;-68
2022/04/01 04:41:57;;;;;;;1.45;1.35;;;;;;;;;;4927863;29;20027;-67
2022/04/01 04:44:27;;;;;;;1.33;1.20;;;;;;;;;;4927624;29;20042;-67
2022/04/01 04:46:53;;;;;;;1.38;1.38;;;;;;;;;;4911594;29;20059;-70
2022/04/01 04:49:22;;;;;;;1.10;1.10;;;;;;;;;;4945143;28;20640;-69
2022/04/01 04:51:48;;;;;;;1.20;1.13;;;;;;;;;;4928581;28;21041;-71
2022/04/01 04:54:42;;;;;;;2.15;1.95;;;;;;;;;;4936944;29;20144;-68
2022/04/01 04:57:20;;;;;;;2.25;2.05;;;;;;;;;;4927107;29;20035;-70
2022/04/01 04:59:48;;;;;;;3.08;1.80;;;;;;;;;;4927709;29;20082;-68
2022/04/01 05:02:26;;;;;;;1.65;1.55;;;;;;;;;;4926860;29;20042;-71
2022/04/01 05:05:29;;;;;;;1.40;1.30;;;;;;;;;;4927469;29;20499;-69
2022/04/01 05:08:15;;;;;;;;;;;;;;;;;;4944067;29;20504;-68
2022/04/01 05:11:14;;;;;;;1.85;1.70;;;;;;;;;;4926837;28;19922;-68
2022/04/01 05:13:59;;;;;;;1.40;1.30;;;;;;;;;;4926911;29;20193;-69
2022/04/01 05:16:32;;;;;;;1.42;1.33;;;;;;;;;;4942319;28;20035;-69
2022/04/01 05:19:09;;;;;;;2.95;2.40;;;;;;;;;;4927213;29;20027;-70
2022/04/01 05:21:53;;;;;;;2.13;1.63;;;;;;;;;;4926715;29;20098;-73
2022/04/01 05:24:32;;;;;;;3.05;2.17;;;;;;;;;;4926696;29;20385;-69
2022/04/01 05:27:00;;;;;;;1.52;1.42;;;;;;;;;;4926990;29;20493;-73
2022/04/01 05:30:00;;;;;;;2.03;1.83;;;;;;;;;;4937992;29;21032;-71
2022/04/01 05:32:31;;;;;;;1.73;1.45;;;;;;;;;;4925460;29;20472;-70
2022/04/01 05:34:58;;;;;;;1.43;1.33;;;;;;;;;;4926109;29;20034;-71
2022/04/01 05:37:28;;;;;;;1.50;1.40;;;;;;;;;;4942523;29;20038;-72
2022/04/01 05:39:55;;;;;;;1.83;1.65;;;;;;;;;;4926897;29;20035;-67
2022/04/01 05:42:22;;;;;;;2.00;1.80;;;;;;;;;;4926023;28;20034;-67
2022/04/01 05:45:12;;;;;;;7.00;3.08;;;;;;;;;;4935597;28;21027;-71
2022/04/01 05:47:39;;;;;;;1.58;1.42;;;;;;;;;;4926392;29;20489;-68
2022/04/01 05:50:06;;;;;;;0.98;0.98;;;;;;;;;;4926221;28;20039;-67
2022/04/01 05:52:34;;;;;;;1.15;1.08;;;;;;;;;;4941945;28;20043;-67
2022/04/01 05:55:00;;;;;;;0.90;0.90;;;;;;;;;;4925884;28;20031;-71
2022/04/01 05:57:26;;;;;;;0.93;0.93;;;;;;;;;;4925188;29;20046;-71
2022/04/01 05:59:53;;;;;;;3.80;1.63;;;;;;;;;;4925415;29;20035;-69
2022/04/01 06:02:47;;;;;;;1.30;1.20;;;;;;;;;;4943812;29;20058;-70
2022/04/01 06:05:17;;;;;;;1.58;1.40;;;;;;;;;;4926643;28;20039;-70
2022/04/01 06:08:02;;;;;;;2.20;2.00;;;;;;;;;;4927605;29;20086;-70
2022/04/01 06:10:57;;;;;;;1.17;1.10;;;;;;;;;;4926638;29;22184;-70
2022/04/01 06:14:02;;;;;;;1.02;0.98;;;;;;;;;;4935576;29;20106;-70
2022/04/01 06:17:00;;;;;;;1.52;1.20;;;;;;;;;;4942992;28;20054;-68
2022/04/01 06:19:40;;;;;;;1.35;1.25;;;;;;;;;;4942920;29;20057;-72
2022/04/01 06:22:08;;;;;;;1.75;1.60;;;;;;;;;;4942960;29;20027;-70
2022/04/01 06:25:03;;;;;;;1.73;1.63;;;;;;;;;;4925677;29;20035;-70
2022/04/01 06:27:39;;;;;;;1.35;1.15;;;;;;;;;;4925487;29;20572;-68
2022/04/01 06:30:05;;;;;;;1.50;0.90;;;;;;;;;;4925967;28;21089;-70
2022/04/01 06:32:49;;;;;;;2.05;1.30;;;;;;;;;;4925597;29;20513;-68
2022/04/01 06:35:27;;;;;;;0.95;0.80;;;;;;;;;;4925659;29;20043;-71
2022/04/01 06:38:34;;;;;;;1.17;1.08;;;;;;;;;;4935171;28;20051;-67
2022/04/01 06:41:05;;;;;;;1.20;1.10;;;;;;;;;;4925735;29;20024;-72
2022/04/01 06:43:38;;;;;;;1.20;1.10;;;;;;;;;;4926068;29;20035;-68
2022/04/01 06:46:29;;;;;;;0.90;0.90;;;;;;;;;;4940928;29;20199;-70
2022/04/01 06:48:58;;;;;;;1.60;1.50;;;;;;;;;;4925132;29;20485;-70
2022/04/01 06:51:42;;;;;;;1.08;1.05;;;;;;;;;;4942682;28;20158;-68
2022/04/01 06:54:25;;;;;;;1.20;1.10;;;;;;;;;;4943269;29;20050;-67
2022/04/01 06:56:54;;;;;;;1.33;1.23;;;;;;;;;;4943092;29;20105;-68
2022/04/01 06:59:20;;;;;;;0.90;0.90;;;;;;;;;;4924438;28;20154;-69
2022/04/01 07:01:46;;;;;;;0.95;0.90;;;;;;;;;;4942167;28;20115;-72
2022/04/01 07:04:11;;;;;;;0.90;0.90;;;;;;;;;;4942124;29;20089;-69
2022/04/01 07:06:37;;;;;;;1.77;0.85;;;;;;;;;;4943525;29;20082;-68
2022/04/01 07:09:02;;;;;;;0.85;0.85;;;;;;;;;;4942159;29;20043;-68
2022/04/01 07:11:28;;;;;;;0.52;0.52;;;;;;;;;;4942477;28;20031;-69
2022/04/01 07:13:54;;;;;;;1.33;1.08;;;;;;;;;;4937864;29;20121;-67
2022/04/01 07:16:19;;;;;;;0.80;0.80;;;;;;;;;;4943049;28;20043;-71
2022/04/01 07:18:45;;;;;;;0.90;0.90;;;;;;;;;;4945667;29;20046;-67
2022/04/01 07:21:11;;;;;;;0.52;0.52;;;;;;;;;;4945753;28;20034;-69
2022/04/01 07:23:37;;;;;;;0.82;0.55;;;;;;;;;;4946376;28;20058;-68
2022/04/01 07:26:03;;;;;;;1.10;0.85;;;;;;;;;;4946267;29;20027;-71
2022/04/01 07:28:28;;;;;;;0.60;0.60;;;;;;;;;;4946867;29;20428;-69
2022/04/01 07:30:55;;;;;;;0.70;0.70;;;;;;;;;;4945827;29;20445;-74
2022/04/01 07:33:20;;;;;;;0.57;0.57;;;;;;;;;;4944760;28;20043;-71
2022/04/01 07:35:49;;;;;;;0.50;0.50;;;;;;;;;;4945964;28;20038;-67
2022/04/01 07:38:15;;;;;;;0.60;0.60;;;;;;;;;;4946096;29;20137;-71
2022/04/01 07:40:42;;;;;;;0.55;0.55;;;;;;;;;;4946392;28;20110;-72
2022/04/01 07:43:08;;;;;;;0.50;0.50;;;;;;;;;;4944808;28;20046;-70
2022/04/01 07:45:34;;;;;;;0.40;0.40;;;;;;;;;;4946137;28;20043;-69
2022/04/01 07:48:01;;;;;;;0.43;0.43;;;;;;;;;;4945688;29;20051;-69
2022/04/01 07:50:27;;;;;;;0.50;0.50;;;;;;;;;;4945555;29;20619;-69
2022/04/01 07:52:53;;;;;;;0.80;0.80;;;;;;;;;;4945404;29;20035;-70
2022/04/01 07:55:19;;;;;;;0.60;0.60;;;;;;;;;;4944836;28;20039;-70
2022/04/01 07:57:48;;;;;;;1.27;0.40;;;;;;;;;;4946061;28;20076;-71
2022/04/01 08:00:15;;;;;;;0.50;0.50;;;;;;;;;;4945813;28;20046;-69
2022/04/01 08:02:41;;;;;;;1.10;0.70;;;;;;;;;;4945146;29;20047;-70
2022/04/01 08:05:07;;;;;;;0.40;0.40;;;;;;;;;;4944659;28;20046;-73
2022/04/01 08:07:33;;;;;;;0.60;0.50;;;;;;;;;;4945833;28;20139;-68
2022/04/01 08:09:58;;;;;;;0.50;0.50;;;;;;;;;;4945584;28;20118;-70
2022/04/01 08:12:24;;;;;;;0.55;0.55;;;;;;;;;;4944854;29;20059;-69
2022/04/01 08:14:49;;;;;;;0.50;0.50;;;;;;;;;;4943181;29;20023;-69
2022/04/01 08:17:15;;;;;;;0.38;0.38;;;;;;;;;;4942614;28;20401;-71
2022/04/01 08:19:42;;;;;;;0.50;0.50;;;;;;;;;;4943643;28;20034;-69
2022/04/01 08:22:08;;;;;;;0.40;0.40;;;;;;;;;;4943984;28;20039;-68
2022/04/01 08:25:29;;;;;;;0.47;0.47;;;;;;;;;;4950231;29;20090;-68
2022/04/01 08:27:55;;;;;;;0.35;0.35;;;;;;;;;;4943476;28;20126;-70
2022/04/01 08:30:21;;;;;;;0.70;0.47;;;;;;;;;;4944889;28;20129;-68
2022/04/01 08:32:46;;;;;;;0.55;0.55;;;;;;;;;;4945104;29;20043;-71
2022/04/01 08:38:58;;;;;;;0.45;0.45;;;;;;;;;;4944798;28;20399;-69
2022/04/01 08:41:23;;;;;;;0.90;0.60;;;;;;;;;;4944678;28;20481;-69
2022/04/01 08:43:51;;;;;;;3.50;0.60;;;;;;;;;;4945365;29;20043;-69
2022/04/01 08:46:18;;;;;;;0.52;0.52;;;;;;;;;;4944745;29;20039;-68
2022/04/01 08:48:44;;;;;;;0.40;0.40;;;;;;;;;;4944326;29;20089;-69
2022/04/01 08:51:11;;;;;;;0.50;0.50;;;;;;;;;;4944596;28;20086;-69
2022/04/01 08:53:38;;;;;;;0.35;0.35;;;;;;;;;;4944843;29;20130;-69
2022/04/01 08:56:05;;;;;;;0.35;0.35;;;;;;;;;;4944641;29;20428;-71
2022/04/01 08:58:31;;;;;;;0.70;0.70;;;;;;;;;;4944956;29;20058;-67
2022/04/01 09:00:58;;;;;;;0.40;0.40;;;;;;;;;;4943373;28;20469;-70
2022/04/01 09:03:24;;;;;;;1.10;0.43;;;;;;;;;;4943717;28;20210;-71
2022/04/01 09:05:54;;;;;;;0.50;0.50;;;;;;;;;;4943697;29;20508;-68
2022/04/01 09:08:39;;;;;;;0.40;0.30;;;;;;;;;;4944598;29;20039;-67
2022/04/01 09:11:06;;;;;;;0.40;0.40;;;;;;;;;;4943303;28;20512;-70
2022/04/01 09:13:46;;;;;;;0.40;0.40;;;;;;;;;;4944432;28;20124;-69
2022/04/01 09:16:33;;;;;;;0.68;0.68;;;;;;;;;;4927231;29;20054;-69
2022/04/01 09:19:03;;;;;;;0.63;0.63;;;;;;;;;;4944886;29;20507;-70
2022/04/01 09:21:32;;;;;;;0.60;0.60;;;;;;;;;;4944012;29;20039;-69
2022/04/01 09:23:59;;;;;;;0.80;0.75;;;;;;;;;;4944198;28;20042;-69
2022/04/01 09:26:33;;;;;;;0.50;0.50;;;;;;;;;;4944059;28;20074;-72
2022/04/01 09:28:59;;;;;;;0.43;0.40;;;;;;;;;;4944457;29;20035;-69
2022/04/01 09:31:30;;;;;;;0.50;0.50;;;;;;;;;;4943836;28;20067;-68
2022/04/01 09:33:56;;;;;;;1.20;0.30;;;;;;;;;;4944029;28;20039;-69
2022/04/01 09:36:29;;;;;;;0.40;0.40;;;;;;;;;;4944216;28;20035;-70
2022/04/01 09:39:17;;;;;;;0.43;0.43;;;;;;;;;;4943469;28;20081;-70
2022/04/01 09:41:48;;;;;;;0.40;0.40;;;;;;;;;;4936133;29;20054;-71
2022/04/01 09:44:17;;;;;;;0.20;0.20;;;;;;;;;;4944700;28;20094;-69
2022/04/01 09:46:48;;;;;;;0.20;0.20;;;;;;;;;;4944823;28;20094;-68
2022/04/01 09:49:29;;;;;;;0.40;0.40;;;;;;;;;;4943542;29;20046;-74
2022/04/01 09:51:54;;;;;;;0.52;0.52;;;;;;;;;;4943746;29;20114;-69
2022/04/01 09:54:23;;;;;;;0.60;0.60;;;;;;;;;;4943166;29;20372;-71
2022/04/01 09:56:54;;;;;;;0.50;0.50;;;;;;;;;;4943985;28;20089;-73
2022/04/01 09:59:21;;;;;;;0.63;0.63;;;;;;;;;;4943638;28;20118;-69
2022/04/01 10:01:47;;;;;;;0.40;0.40;;;;;;;;;;4943332;28;20027;-69
2022/04/01 10:04:14;;;;;;;1.05;0.52;;;;;;;;;;4926006;29;20489;-72
2022/04/01 10:06:41;;;;;;;0.50;0.50;;;;;;;;;;4943069;28;20039;-68
2022/04/01 10:09:10;;;;;;;0.40;0.40;;;;;;;;;;4943656;28;20046;-69
2022/04/01 10:11:37;;;;;;;0.40;0.40;;;;;;;;;;4943099;28;20047;-68
2022/04/01 10:14:10;;;;;;;0.73;0.60;;;;;;;;;;4943713;29;20133;-74
2022/04/01 10:16:36;;;;;;;0.47;0.47;;;;;;;;;;4938730;29;20057;-70
2022/04/01 10:19:11;;;;;;;1.08;0.50;;;;;;;;;;4941353;28;20039;-73
2022/04/01 10:21:40;;;;;;;0.60;0.60;;;;;;;;;;4941065;28;20472;-69
2022/04/01 10:24:42;;;;;;;0.40;0.40;;;;;;;;;;4940811;29;20952;-68
2022/04/01 10:27:15;;;;;;;1.13;0.70;;;;;;;;;;4900103;29;20059;-72
2022/04/01 10:29:43;;;;;;;0.40;0.40;;;;;;;;;;4941317;28;20035;-72
2022/04/01 10:32:28;;;;;;;1.33;0.60;;;;;;;;;;4941480;28;20098;-70
2022/04/01 10:34:55;;;;;;;0.70;0.70;;;;;;;;;;4943644;29;20034;-68
2022/04/01 10:37:23;;;;;;;0.40;0.40;;;;;;;;;;4945868;29;20050;-68
2022/04/01 10:39:52;;;;;;;1.00;0.77;;;;;;;;;;4945405;28;20418;-69
2022/04/01 10:42:18;;;;;;;0.65;0.65;;;;;;;;;;4943597;28;20175;-70
2022/04/01 10:44:47;;;;;;;1.42;1.05;;;;;;;;;;4942352;29;20126;-68
2022/04/01 10:47:13;;;;;;;0.82;0.82;;;;;;;;;;4942013;29;20035;-68
2022/04/01 10:52:23;;;;;;;0.50;0.50;;;;;;;;;;4945891;28;20118;-69
2022/04/01 10:55:05;;;;;;;0.40;0.40;;;;;;;;;;4945565;29;20130;-71
2022/04/01 10:57:33;;;;;;;1.00;0.75;;;;;;;;;;4945816;29;20058;-72
2022/04/01 11:00:12;;;;;;;0.60;0.60;;;;;;;;;;4946769;29;20062;-69
2022/04/01 11:02:38;;;;;;;0.38;0.38;;;;;;;;;;4944944;28;20091;-73
2022/04/01 11:05:25;;;;;;;0.77;0.77;;;;;;;;;;4944944;28;20555;-74
2022/04/01 11:08:14;;;;;;;0.60;0.60;;;;;;;;;;4945269;29;20043;-70
2022/04/01 11:10:39;;;;;;;0.60;0.60;;;;;;;;;;4944133;28;20106;-68
2022/04/01 11:13:05;;;;;;;0.73;0.73;;;;;;;;;;4943563;28;20975;-69
2022/04/01 11:15:31;;;;;;;1.00;1.00;;;;;;;;;;4944666;28;20039;-70
2022/04/01 11:17:56;;;;;;;0.88;0.88;;;;;;;;;;4944279;29;20517;-73
2022/04/01 11:20:21;;;;;;;1.30;1.05;;;;;;;;;;4944542;28;20037;-72
2022/04/01 11:22:53;;;;;;;0.98;0.80;;;;;;;;;;4943196;29;20871;-72
2022/04/01 11:25:24;;;;;;;0.57;0.57;;;;;;;;;;4944709;28;20776;-70
2022/04/01 11:27:50;;;;;;;0.60;0.60;;;;;;;;;;4944139;29;20043;-69
2022/04/01 11:30:20;;;;;;;0.90;0.90;;;;;;;;;;4944687;28;20031;-70
2022/04/01 11:32:49;;;;;;;0.70;0.70;;;;;;;;;;4943661;29;20054;-70
2022/04/01 11:35:16;;;;;;;1.10;1.00;;;;;;;;;;4944865;28;20035;-70
2022/04/01 11:37:43;;;;;;;3.28;1.05;;;;;;;;;;4945064;28;20035;-70
2022/04/01 11:40:22;;;;;;;0.70;0.70;;;;;;;;;;4945288;28;20035;-69
2022/04/01 11:42:57;;;;;;;1.23;0.90;;;;;;;;;;4945484;29;20027;-68
2022/04/01 11:45:24;;;;;;;1.73;0.70;;;;;;;;;;4945417;28;20043;-69
2022/04/01 11:47:50;;;;;;;1.10;1.10;;;;;;;;;;4945794;28;20500;-69
2022/04/01 11:50:18;;;;;;;0.98;0.85;;;;;;;;;;4945481;29;20047;-69
2022/04/01 11:52:46;;;;;;;1.10;1.00;;;;;;;;;;4945734;29;20035;-69
2022/04/01 11:55:21;;;;;;;3.50;0.90;;;;;;;;;;4945137;29;20058;-68
2022/04/01 11:57:47;;;;;;;0.70;0.70;;;;;;;;;;4945701;28;20071;-69
2022/04/01 12:00:18;;;;;;;1.02;1.02;;;;;;;;;;4945607;28;20075;-69
2022/04/01 12:02:47;;;;;;;0.55;0.55;;;;;;;;;;4944506;28;20110;-69
2022/04/01 12:05:14;;;;;;;0.70;0.70;;;;;;;;;;4945293;29;20089;-68
2022/04/01 12:10:26;;;;;;;0.75;0.75;;;;;;;;;;4945404;28;20054;-68
2022/04/01 12:12:55;;;;;;;0.50;0.50;;;;;;;;;;4945608;29;20627;-69
2022/04/01 12:15:30;;;;;;;0.57;0.52;;;;;;;;;;4928343;29;20046;-69
2022/04/01 12:17:56;;;;;;;0.60;0.60;;;;;;;;;;4944839;29;20035;-70
2022/04/01 12:20:21;;;;;;;0.80;0.80;;;;;;;;;;4945445;28;20047;-69
2022/04/01 12:22:47;;;;;;;0.80;0.80;;;;;;;;;;4945007;29;20038;-69
2022/04/01 12:25:12;;;;;;;0.95;0.85;;;;;;;;;;4945616;29;20404;-70
2022/04/01 12:28:08;;;;;;;0.82;0.82;;;;;;;;;;4928188;29;20392;-69
2022/04/01 12:30:41;;;;;;;0.90;0.90;;;;;;;;;;4926283;28;20098;-69
2022/04/01 12:33:33;;;;;;;1.20;1.10;;;;;;;;;;4944852;28;20047;-68
2022/04/01 12:36:07;;;;;;;0.90;0.90;;;;;;;;;;4941581;29;20053;-68
2022/04/01 12:38:35;;;;;;;0.70;0.70;;;;;;;;;;4945401;29;20047;-69
2022/04/01 12:41:04;;;;;;;0.50;0.50;;;;;;;;;;4944407;28;20404;-68
2022/04/01 12:43:39;;;;;;;0.73;0.73;;;;;;;;;;4944703;28;20031;-69
2022/04/01 12:46:17;;;;;;;1.02;1.02;;;;;;;;;;4938772;28;20047;-69
2022/04/01 12:48:47;;;;;;;1.25;1.15;;;;;;;;;;4942887;29;20489;-69
2022/04/01 12:51:32;;;;;;;0.93;0.90;;;;;;;;;;4941991;28;20501;-68
2022/04/01 12:54:12;;;;;;;1.67;0.90;;;;;;;;;;4943121;28;20437;-69
2022/04/01 12:56:42;;;;;;;0.50;0.50;;;;;;;;;;4943430;29;20045;-68
2022/04/01 12:59:14;;;;;;;1.00;1.00;;;;;;;;;;4942642;29;20134;-69
2022/04/01 13:01:46;;;;;;;0.77;0.77;;;;;;;;;;4942324;29;20069;-69
2022/04/01 13:04:20;;;;;;;1.40;1.30;;;;;;;;;;4943097;28;20095;-70
2022/04/01 13:07:04;;;;;;;0.77;0.77;;;;;;;;;;4943344;29;20031;-69
2022/04/01 13:09:31;;;;;;;1.33;1.23;;;;;;;;;;4942072;28;21073;-69
2022/04/01 13:12:01;;;;;;;0.95;0.95;;;;;;;;;;4941238;28;20062;-69
2022/04/01 13:14:29;;;;;;;0.98;0.93;;;;;;;;;;4940840;28;20046;-69
2022/04/01 13:16:56;;;;;;;0.82;0.82;;;;;;;;;;4941757;28;20074;-68
2022/04/01 13:19:26;;;;;;;1.20;1.10;;;;;;;;;;4941049;28;20054;-70
2022/04/01 13:21:54;;;;;;;1.70;1.60;;;;;;;;;;4939789;28;20146;-69
2022/04/01 13:24:25;;;;;;;1.20;1.02;;;;;;;;;;4942510;28;20118;-68
2022/04/01 13:26:51;;;;;;;3.90;1.40;;;;;;;;;;4943146;29;20046;-69
2022/04/01 13:29:17;;;;;;;1.60;1.42;;;;;;;;;;4941740;29;20035;-68
2022/04/01 13:31:43;;;;;;;1.02;1.00;;;;;;;;;;4941850;28;20655;-68
2022/04/01 13:34:08;;;;;;;1.85;1.27;;;;;;;;;;4942945;28;20134;-69
2022/04/01 13:36:36;;;;;;;1.50;1.30;;;;;;;;;;4943110;29;20031;-69
2022/04/01 13:39:03;;;;;;;4.15;1.88;;;;;;;;;;4943410;29;20034;-69
2022/04/01 13:41:28;;;;;;;0.73;0.73;;;;;;;;;;4942617;28;20038;-69
2022/04/01 13:43:54;;;;;;;2.08;1.88;;;;;;;;;;4942435;28;20038;-68
2022/04/01 13:46:20;;;;;;;0.90;0.90;;;;;;;;;;4943271;29;20079;-69
2022/04/01 13:48:45;;;;;;;1.45;1.35;;;;;;;;;;4943113;29;20158;-69
2022/04/01 13:51:11;;;;;;;0.95;0.95;;;;;;;;;;4942506;28;20039;-69
2022/04/01 13:53:37;;;;;;;0.90;0.90;;;;;;;;;;4941371;29;20032;-68
2022/04/01 13:56:03;;;;;;;2.40;1.55;;;;;;;;;;4942292;29;20437;-67
2022/04/01 13:58:28;;;;;;;1.70;1.55;;;;;;;;;;4941532;29;20489;-67
2022/04/01 14:00:54;;;;;;;1.20;1.20;;;;;;;;;;4943291;28;20476;-66
2022/04/01 14:03:20;;;;;;;1.50;1.40;;;;;;;;;;4940444;29;20053;-67
2022/04/01 14:05:46;;;;;;;1.35;1.30;;;;;;;;;;4940901;28;20125;-66
2022/04/01 14:08:13;;;;;;;1.55;1.45;;;;;;;;;;4942774;29;20416;-66
2022/04/01 14:10:40;;;;;;;1.00;1.00;;;;;;;;;;4941770;29;20030;-66
2022/04/01 14:13:06;;;;;;;1.73;1.63;;;;;;;;;;4941071;29;20436;-67
2022/04/01 14:15:32;;;;;;;1.00;0.85;;;;;;;;;;4941674;28;20027;-65
2022/04/01 14:17:58;;;;;;;1.40;1.30;;;;;;;;;;4943250;29;20451;-66
2022/04/01 14:20:23;;;;;;;1.58;1.48;;;;;;;;;;4943910;29;20434;-67
2022/04/01 14:22:50;;;;;;;2.65;1.85;;;;;;;;;;4943415;29;20031;-69
2022/04/01 14:25:15;;;;;;;1.15;1.13;;;;;;;;;;4942384;28;20089;-67
2022/04/01 14:27:41;;;;;;;1.83;1.40;;;;;;;;;;4943444;28;20035;-65
2022/04/01 14:30:18;;;;;;;1.30;1.20;;;;;;;;;;4943128;28;20496;-68
2022/04/01 14:32:54;;;;;;;1.10;1.02;;;;;;;;;;4943185;29;20037;-68
2022/04/01 14:35:24;;;;;;;0.95;0.95;;;;;;;;;;4942705;29;20151;-68
2022/04/01 14:37:49;;;;;;;1.20;1.10;;;;;;;;;;4943296;28;20114;-68
2022/04/01 14:40:16;;;;;;;1.17;1.17;;;;;;;;;;4943012;28;20126;-66
2022/04/01 14:42:42;;;;;;;1.10;1.10;;;;;;;;;;4925527;29;20114;-67
2022/04/01 14:45:09;;;;;;;1.15;1.15;;;;;;;;;;4942884;29;20043;-67
2022/04/01 14:47:34;;;;;;;12.15;2.10;;;;;;;;;;4942722;28;20039;-67
2022/04/01 14:50:00;;;;;;;1.15;1.13;;;;;;;;;;4942849;28;20039;-67
2022/04/01 14:52:25;;;;;;;1.67;1.45;;;;;;;;;;4942784;28;20036;-68
2022/04/01 14:54:52;;;;;;;1.33;1.23;;;;;;;;;;4942642;29;20404;-67
2022/04/01 14:57:19;;;;;;;1.67;1.58;;;;;;;;;;4942293;29;20121;-67
2022/04/01 14:59:45;;;;;;;1.27;1.23;;;;;;;;;;4943138;28;20047;-67
2022/04/01 15:02:11;;;;;;;1.48;1.38;;;;;;;;;;4942082;28;20046;-67
2022/04/01 15:04:38;;;;;;;1.50;1.40;;;;;;;;;;4942862;29;20050;-67
2022/04/01 15:07:04;;;;;;;1.40;1.30;;;;;;;;;;4942779;29;20507;-67
2022/04/01 15:09:37;;;;;;;1.88;1.77;;;;;;;;;;4942012;28;20031;-67
2022/04/01 15:12:06;;;;;;;1.98;1.77;;;;;;;;;;4942321;28;20058;-66
2022/04/01 15:14:31;;;;;;;1.48;1.38;;;;;;;;;;4942516;29;20046;-67
2022/04/01 15:16:57;;;;;;;1.70;1.60;;;;;;;;;;4943085;29;20035;-68
2022/04/01 15:19:22;;;;;;;1.40;1.30;;;;;;;;;;4941853;29;20146;-67